sensor_id;sensor_type;location;lat;lon;timestamp;temperature;humidity
5358;DHT22;2702;51.014;7.170;2022-12-26T00:34:53;10.60;99.90
5358;DHT22;2702;51.014;7.170;2022-12-26T00:37:19;10.60;99.90
5358;DHT22;2702;51.014;7.170;2022-12-26T00:39:45;10.70;99.90
5358;DHT22;2702;51.014;7.170;2022-12-26T00:42:11;10.80;99.90
5358;DHT22;2702;51.014;7.170;2022-12-26T00:44:37;11.00;99.90
5358;DHT22;2702;51.014;7.170;2022-12-26T00:47:03;11.10;99.90
5358;DHT22;2702;51.014;7.170;2022-12-26T00:49:28;11.20;99.90
5358;DHT22;2702;51.014;7.170;2022-12-26T00:51:54;11.30;99.90
5358;DHT22;2702;51.014;7.170;2022-12-26T00:54:20;11.50;99.90
5358;DHT22;2702;51.014;7.170;2022-12-26T00:56:46;11.60;99.90
5358;DHT22;2702;51.014;7.170;2022-12-26T00:59:12;11.70;99.90
5358;DHT22;2702;51.014;7.170;2022-12-26T01:01:37;11.70;99.90
5358;DHT22;2702;51.014;7.170;2022-12-26T01:04:03;11.70;99.90
5358;DHT22;2702;51.014;7.170;2022-12-26T01:06:29;11.80;99.90
5358;DHT22;2702;51.014;7.170;2022-12-26T01:08:55;11.90;99.90
5358;DHT22;2702;51.014;7.170;2022-12-26T01:11:21;12.00;99.90
5358;DHT22;2702;51.014;7.170;2022-12-26T01:14:14;12.00;99.90
5358;DHT22;2702;51.014;7.170;2022-12-26T01:16:42;12.10;99.90
5358;DHT22;2702;51.014;7.170;2022-12-26T01:19:09;12.10;99.90
5358;DHT22;2702;51.014;7.170;2022-12-26T01:21:35;12.20;99.90
5358;DHT22;2702;51.014;7.170;2022-12-26T01:24:01;12.20;99.90
5358;DHT22;2702;51.014;7.170;2022-12-26T01:26:27;12.20;99.90
5358;DHT22;2702;51.014;7.170;2022-12-26T01:28:53;12.20;99.90
5358;DHT22;2702;51.014;7.170;2022-12-26T01:31:20;12.30;99.90
5358;DHT22;2702;51.014;7.170;2022-12-26T01:33:47;12.20;99.90
5358;DHT22;2702;51.014;7.170;2022-12-26T05:34:07;9.70;99.90
5358;DHT22;2702;51.014;7.170;2022-12-26T05:36:41;9.80;99.90
5358;DHT22;2702;51.014;7.170;2022-12-26T05:39:08;9.90;99.90
5358;DHT22;2702;51.014;7.170;2022-12-26T05:41:35;10.00;99.90
5358;DHT22;2702;51.014;7.170;2022-12-26T05:44:01;10.10;99.90
5358;DHT22;2702;51.014;7.170;2022-12-26T05:46:27;10.10;99.90
5358;DHT22;2702;51.014;7.170;2022-12-26T05:48:53;10.20;99.90
5358;DHT22;2702;51.014;7.170;2022-12-26T05:51:19;10.20;99.90
5358;DHT22;2702;51.014;7.170;2022-12-26T05:53:45;10.20;99.90
5358;DHT22;2702;51.014;7.170;2022-12-26T05:56:15;10.30;99.90
5358;DHT22;2702;51.014;7.170;2022-12-26T05:58:42;10.30;99.90
5358;DHT22;2702;51.014;7.170;2022-12-26T06:03:36;10.40;99.90
5358;DHT22;2702;51.014;7.170;2022-12-26T06:06:04;10.40;99.90
5358;DHT22;2702;51.014;7.170;2022-12-26T06:08:31;10.30;99.90
5358;DHT22;2702;51.014;7.170;2022-12-26T06:10:57;10.30;99.90
5358;DHT22;2702;51.014;7.170;2022-12-26T06:13:23;10.30;99.90
5358;DHT22;2702;51.014;7.170;2022-12-26T06:15:49;10.30;99.90
5358;DHT22;2702;51.014;7.170;2022-12-26T06:18:15;10.40;99.90
5358;DHT22;2702;51.014;7.170;2022-12-26T06:20:40;10.40;99.90
5358;DHT22;2702;51.014;7.170;2022-12-26T06:23:06;10.40;99.90
5358;DHT22;2702;51.014;7.170;2022-12-26T06:25:32;10.50;99.90
5358;DHT22;2702;51.014;7.170;2022-12-26T06:27:58;10.60;99.90
5358;DHT22;2702;51.014;7.170;2022-12-26T06:30:24;10.60;99.90
5358;DHT22;2702;51.014;7.170;2022-12-26T06:32:50;10.60;99.90
5358;DHT22;2702;51.014;7.170;2022-12-26T07:05:30;9.30;99.90
5358;DHT22;2702;51.014;7.170;2022-12-26T07:07:56;9.30;99.90
5358;DHT22;2702;51.014;7.170;2022-12-26T07:10:22;9.50;99.90
5358;DHT22;2702;51.014;7.170;2022-12-26T07:12:47;9.60;99.90
5358;DHT22;2702;51.014;7.170;2022-12-26T07:15:14;9.80;99.90
5358;DHT22;2702;51.014;7.170;2022-12-26T07:17:40;9.90;99.90
5358;DHT22;2702;51.014;7.170;2022-12-26T07:20:07;10.10;99.90
5358;DHT22;2702;51.014;7.170;2022-12-26T07:22:33;10.10;99.90
5358;DHT22;2702;51.014;7.170;2022-12-26T07:24:59;10.10;99.90
5358;DHT22;2702;51.014;7.170;2022-12-26T07:27:25;10.30;99.90
5358;DHT22;2702;51.014;7.170;2022-12-26T07:29:51;10.30;99.90
5358;DHT22;2702;51.014;7.170;2022-12-26T07:32:16;10.30;99.90
5358;DHT22;2702;51.014;7.170;2022-12-26T07:34:42;10.40;99.90
5358;DHT22;2702;51.014;7.170;2022-12-26T11:32:04;9.60;99.90
5358;DHT22;2702;51.014;7.170;2022-12-26T11:34:38;9.70;99.90
5358;DHT22;2702;51.014;7.170;2022-12-26T11:37:27;9.80;99.90
5358;DHT22;2702;51.014;7.170;2022-12-26T11:39:55;9.90;99.90
5358;DHT22;2702;51.014;7.170;2022-12-26T11:42:23;10.00;99.90
5358;DHT22;2702;51.014;7.170;2022-12-26T11:44:53;10.10;99.90
5358;DHT22;2702;51.014;7.170;2022-12-26T11:47:26;10.20;99.90
5358;DHT22;2702;51.014;7.170;2022-12-26T11:52:42;10.40;99.90
5358;DHT22;2702;51.014;7.170;2022-12-26T11:55:30;10.40;99.90
5358;DHT22;2702;51.014;7.170;2022-12-26T12:03:12;10.50;99.90
5358;DHT22;2702;51.014;7.170;2022-12-26T15:33:48;7.00;99.90
5358;DHT22;2702;51.014;7.170;2022-12-26T15:42:40;7.10;99.90
5358;DHT22;2702;51.014;7.170;2022-12-26T15:51:00;7.10;99.90
5358;DHT22;2702;51.014;7.170;2022-12-26T15:59:34;7.20;99.90
5358;DHT22;2702;51.014;7.170;2022-12-26T16:02:30;7.20;99.90
5358;DHT22;2702;51.014;7.170;2022-12-26T16:07:52;7.10;99.90
5358;DHT22;2702;51.014;7.170;2022-12-26T16:13:26;7.10;99.90
5358;DHT22;2702;51.014;7.170;2022-12-26T16:15:57;7.00;99.90
5358;DHT22;2702;51.014;7.170;2022-12-26T16:18:28;6.90;99.90
5358;DHT22;2702;51.014;7.170;2022-12-26T16:20:58;6.90;99.90
5358;DHT22;2702;51.014;7.170;2022-12-26T16:23:45;6.70;99.90
5358;DHT22;2702;51.014;7.170;2022-12-26T16:26:23;6.70;99.90
5358;DHT22;2702;51.014;7.170;2022-12-26T16:28:50;6.70;99.90
5358;DHT22;2702;51.014;7.170;2022-12-26T16:31:20;6.60;99.90
5358;DHT22;2702;51.014;7.170;2022-12-26T16:33:50;6.60;99.90
5358;DHT22;2702;51.014;7.170;2022-12-26T16:36:28;6.50;99.90
5358;DHT22;2702;51.014;7.170;2022-12-26T16:38:54;6.40;99.90
5358;DHT22;2702;51.014;7.170;2022-12-26T16:41:24;6.40;99.90
5358;DHT22;2702;51.014;7.170;2022-12-26T16:43:52;6.40;99.90
5358;DHT22;2702;51.014;7.170;2022-12-26T16:46:21;6.40;99.90
5358;DHT22;2702;51.014;7.170;2022-12-26T16:48:57;6.40;99.90
5358;DHT22;2702;51.014;7.170;2022-12-26T16:51:43;6.30;99.90
5358;DHT22;2702;51.014;7.170;2022-12-26T16:57:11;6.30;99.90
5358;DHT22;2702;51.014;7.170;2022-12-26T17:02:25;6.30;99.90
5358;DHT22;2702;51.014;7.170;2022-12-26T18:31:23;4.20;99.90
5358;DHT22;2702;51.014;7.170;2022-12-26T18:33:51;4.10;99.90
5358;DHT22;2702;51.014;7.170;2022-12-26T18:36:17;4.10;99.90
5358;DHT22;2702;51.014;7.170;2022-12-26T18:38:44;4.10;99.90
5358;DHT22;2702;51.014;7.170;2022-12-26T18:41:14;4.10;99.90
5358;DHT22;2702;51.014;7.170;2022-12-26T18:43:40;4.10;99.90
5358;DHT22;2702;51.014;7.170;2022-12-26T18:46:15;4.10;99.90
5358;DHT22;2702;51.014;7.170;2022-12-26T18:48:42;4.10;99.90
5358;DHT22;2702;51.014;7.170;2022-12-26T18:51:08;4.00;99.90
5358;DHT22;2702;51.014;7.170;2022-12-26T18:53:33;4.00;99.90
5358;DHT22;2702;51.014;7.170;2022-12-26T18:55:59;4.00;99.90
5358;DHT22;2702;51.014;7.170;2022-12-26T18:58:25;4.10;99.90
5358;DHT22;2702;51.014;7.170;2022-12-26T19:00:51;4.00;99.90
5358;DHT22;2702;51.014;7.170;2022-12-26T19:03:17;4.00;99.90
5358;DHT22;2702;51.014;7.170;2022-12-26T19:05:43;4.00;99.90
5358;DHT22;2702;51.014;7.170;2022-12-26T19:08:09;3.90;99.90
5358;DHT22;2702;51.014;7.170;2022-12-26T19:10:35;3.90;99.90
5358;DHT22;2702;51.014;7.170;2022-12-26T19:13:02;3.80;99.90
5358;DHT22;2702;51.014;7.170;2022-12-26T19:15:33;3.80;99.90
5358;DHT22;2702;51.014;7.170;2022-12-26T19:17:59;3.70;99.90
5358;DHT22;2702;51.014;7.170;2022-12-26T19:20:26;3.70;99.90
5358;DHT22;2702;51.014;7.170;2022-12-26T19:22:53;3.60;99.90
5358;DHT22;2702;51.014;7.170;2022-12-26T19:25:21;3.60;99.90
5358;DHT22;2702;51.014;7.170;2022-12-26T19:27:48;3.60;99.90
5358;DHT22;2702;51.014;7.170;2022-12-26T19:30:15;3.60;99.90
5358;DHT22;2702;51.014;7.170;2022-12-26T19:32:42;3.50;99.90
5358;DHT22;2702;51.014;7.170;2022-12-26T20:03:35;2.80;99.90
5358;DHT22;2702;51.014;7.170;2022-12-26T20:06:12;2.80;99.90
5358;DHT22;2702;51.014;7.170;2022-12-26T20:08:39;2.90;99.90
5358;DHT22;2702;51.014;7.170;2022-12-26T20:11:07;3.00;99.90
5358;DHT22;2702;51.014;7.170;2022-12-26T20:13:34;3.00;99.90
5358;DHT22;2702;51.014;7.170;2022-12-26T20:16:02;3.10;99.90
5358;DHT22;2702;51.014;7.170;2022-12-26T20:18:28;3.10;99.90
5358;DHT22;2702;51.014;7.170;2022-12-26T20:20:54;3.20;99.90
5358;DHT22;2702;51.014;7.170;2022-12-26T20:23:20;3.30;99.90
5358;DHT22;2702;51.014;7.170;2022-12-26T20:25:46;3.20;99.90
5358;DHT22;2702;51.014;7.170;2022-12-26T20:28:11;3.20;99.90
5358;DHT22;2702;51.014;7.170;2022-12-26T20:30:37;3.30;99.90
5358;DHT22;2702;51.014;7.170;2022-12-26T20:33:04;3.20;99.90
5358;DHT22;2702;51.014;7.170;2022-12-26T20:35:30;3.20;99.90
5358;DHT22;2702;51.014;7.170;2022-12-26T20:37:56;3.20;99.90
5358;DHT22;2702;51.014;7.170;2022-12-26T20:40:21;3.10;99.90
5358;DHT22;2702;51.014;7.170;2022-12-26T20:42:47;3.10;99.90
5358;DHT22;2702;51.014;7.170;2022-12-26T20:45:13;3.10;99.90
5358;DHT22;2702;51.014;7.170;2022-12-26T20:47:39;3.00;99.90
5358;DHT22;2702;51.014;7.170;2022-12-26T20:50:06;3.10;99.90
5358;DHT22;2702;51.014;7.170;2022-12-26T20:52:32;3.00;99.90
5358;DHT22;2702;51.014;7.170;2022-12-26T20:54:57;3.10;99.90
5358;DHT22;2702;51.014;7.170;2022-12-26T20:57:23;3.10;99.90
5358;DHT22;2702;51.014;7.170;2022-12-26T20:59:49;3.10;99.90
5358;DHT22;2702;51.014;7.170;2022-12-26T21:02:15;3.00;99.90
